Time;durP1;ratioP1;P1;durP2;ratioP2;P2;SDS_P1;SDS_P2;PMS_P1;PMS_P2;Temp;Humidity;BMP_temperature;BMP_pressure;BME280_temperature;BME280_humidity;BME280_pressure;Samples;Min_cycle;Max_cycle;Signal;HPM_P1;HPM_P2
2021/10/08 00:01:24;;;;;;;7.25;4.85;;;10.20;99.90;;;;;;12340354;28;20042;-84
2021/10/08 00:07:25;;;;;;;6.13;4.60;;;10.20;99.90;;;;;;12385151;28;20661;-84
2021/10/08 00:13:27;;;;;;;8.07;5.25;;;10.10;99.90;;;;;;12378353;28;20050;-84
2021/10/08 00:19:29;;;;;;;7.88;4.97;;;9.90;99.90;;;;;;12372255;28;20124;-83
2021/10/08 00:25:31;;;;;;;8.95;5.13;;;10.00;99.90;;;;;;12380222;28;20058;-84
2021/10/08 00:31:33;;;;;;;9.32;4.50;;;10.00;99.90;;;;;;12358962;28;20364;-84
2021/10/08 00:37:34;;;;;;;6.35;4.38;;;10.00;99.90;;;;;;12358843;28;20509;-84
2021/10/08 00:43:36;;;;;;;6.50;4.40;;;9.90;99.90;;;;;;12350614;28;20047;-84
2021/10/08 00:49:39;;;;;;;6.10;4.82;;;9.70;99.90;;;;;;12335047;28;20142;-83
2021/10/08 00:55:43;;;;;;;6.65;4.75;;;9.70;99.90;;;;;;12349409;28;20101;-83
2021/10/08 01:01:45;;;;;;;6.07;4.25;;;9.80;99.90;;;;;;12345178;28;20047;-84
2021/10/08 01:07:49;;;;;;;7.10;4.90;;;9.70;99.90;;;;;;12358430;28;20262;-84
2021/10/08 01:13:51;;;;;;;6.30;4.33;;;9.60;99.90;;;;;;12356930;28;20046;-84
2021/10/08 01:19:52;;;;;;;6.68;3.83;;;9.50;99.90;;;;;;12335077;28;20046;-84
2021/10/08 01:25:54;;;;;;;5.38;4.18;;;9.50;99.90;;;;;;12359541;28;20077;-84
2021/10/08 01:31:56;;;;;;;6.40;3.42;;;9.40;99.90;;;;;;12384092;28;20046;-84
2021/10/08 01:37:58;;;;;;;5.20;3.90;;;9.40;99.90;;;;;;12371562;28;20295;-84
2021/10/08 01:44:01;;;;;;;4.78;3.50;;;9.50;99.90;;;;;;12366756;28;20046;-84
2021/10/08 01:50:04;;;;;;;5.57;3.63;;;9.30;99.90;;;;;;12371311;28;20062;-84
2021/10/08 01:56:06;;;;;;;6.05;3.40;;;9.40;99.90;;;;;;12376519;28;20103;-84
2021/10/08 02:02:07;;;;;;;7.15;4.60;;;9.40;99.90;;;;;;12378323;28;20050;-84
2021/10/08 02:08:09;;;;;;;6.57;4.05;;;9.30;99.90;;;;;;12377952;28;20501;-84
2021/10/08 02:14:11;;;;;;;7.50;3.85;;;9.30;99.90;;;;;;12373830;28;20457;-84
2021/10/08 02:20:13;;;;;;;5.65;4.07;;;9.20;99.90;;;;;;12370015;28;20042;-84
2021/10/08 02:26:16;;;;;;;5.88;3.80;;;9.20;99.90;;;;;;12378171;28;20057;-84
2021/10/08 02:32:18;;;;;;;4.40;3.15;;;9.30;99.90;;;;;;12391580;28;20669;-84
2021/10/08 02:38:20;;;;;;;7.00;4.32;;;9.10;99.90;;;;;;12387632;28;20050;-84
2021/10/08 02:44:22;;;;;;;7.20;4.90;;;9.10;99.90;;;;;;12389939;28;20042;-84
2021/10/08 02:50:26;;;;;;;7.03;5.18;;;9.10;99.90;;;;;;12388915;28;20418;-84
2021/10/08 02:56:28;;;;;;;8.03;5.43;;;8.80;99.90;;;;;;12388681;28;20721;-84
2021/10/08 03:02:30;;;;;;;8.02;4.57;;;8.80;99.90;;;;;;12395162;28;20071;-84
2021/10/08 03:08:32;;;;;;;7.60;4.75;;;8.90;99.90;;;;;;12390063;28;20144;-84
2021/10/08 03:14:33;;;;;;;5.22;4.00;;;8.60;99.90;;;;;;12408484;28;20108;-85
2021/10/08 03:20:35;;;;;;;6.47;4.78;;;8.60;99.90;;;;;;12396045;28;20172;-84
2021/10/08 03:26:37;;;;;;;9.95;5.20;;;8.50;99.90;;;;;;12392179;28;20120;-83
2021/10/08 03:32:39;;;;;;;6.68;4.82;;;8.50;99.90;;;;;;12385514;28;20073;-83
2021/10/08 03:38:42;;;;;;;9.23;5.22;;;8.50;99.90;;;;;;12381221;28;20123;-84
2021/10/08 03:44:56;;;;;;;11.45;6.05;;;8.60;99.90;;;;;;12398384;28;20554;-85
2021/10/08 03:51:00;;;;;;;11.07;6.60;;;8.40;99.90;;;;;;12384932;28;20182;-84
2021/10/08 03:57:02;;;;;;;12.90;6.55;;;8.40;99.90;;;;;;12407628;28;20561;-84
2021/10/08 04:03:04;;;;;;;43.90;6.88;;;8.30;99.90;;;;;;12398426;28;20970;-84
2021/10/08 04:09:07;;;;;;;29.90;6.18;;;8.20;99.90;;;;;;12394364;28;20717;-84
2021/10/08 04:15:09;;;;;;;93.00;7.05;;;8.30;99.90;;;;;;12391170;28;20107;-85
2021/10/08 04:21:11;;;;;;;6.65;4.55;;;8.20;99.90;;;;;;12372664;28;20134;-84
2021/10/08 04:27:13;;;;;;;9.98;4.80;;;8.10;99.90;;;;;;12379750;28;20126;-84
2021/10/08 04:33:16;;;;;;;7.35;5.38;;;8.00;99.90;;;;;;12373817;28;20045;-84
2021/10/08 04:39:18;;;;;;;7.15;5.00;;;8.00;99.90;;;;;;12377786;28;20259;-84
2021/10/08 04:45:20;;;;;;;7.10;4.60;;;8.00;99.90;;;;;;12379929;28;20329;-84
2021/10/08 04:51:22;;;;;;;6.30;4.03;;;8.00;99.90;;;;;;12373909;28;20089;-83
2021/10/08 04:57:24;;;;;;;6.35;4.43;;;7.80;99.90;;;;;;12386436;28;20072;-83
2021/10/08 05:03:25;;;;;;;6.60;4.47;;;8.00;99.90;;;;;;12397291;28;20093;-83
2021/10/08 05:09:27;;;;;;;7.05;4.80;;;7.80;99.90;;;;;;12378966;28;20090;-84
2021/10/08 05:15:29;;;;;;;6.53;4.75;;;7.80;99.90;;;;;;12384421;28;20193;-84
2021/10/08 05:21:31;;;;;;;8.65;5.35;;;7.70;99.90;;;;;;12392023;28;20068;-84
2021/10/08 05:27:33;;;;;;;8.10;5.82;;;7.50;99.90;;;;;;12385484;28;20426;-84
2021/10/08 05:33:35;;;;;;;10.82;5.50;;;7.50;99.90;;;;;;12383922;28;20049;-84
2021/10/08 05:39:37;;;;;;;7.68;5.95;;;7.30;99.90;;;;;;12383673;28;21431;-83
2021/10/08 05:45:39;;;;;;;9.38;5.32;;;7.30;99.90;;;;;;12382436;28;20131;-84
2021/10/08 05:51:41;;;;;;;6.93;4.15;;;7.40;99.90;;;;;;12370416;28;20125;-84
2021/10/08 05:57:42;;;;;;;7.50;4.15;;;7.40;99.90;;;;;;12372885;28;20403;-84
2021/10/08 06:03:44;;;;;;;34.42;5.28;;;7.40;99.90;;;;;;12389409;28;20076;-84
2021/10/08 06:09:46;;;;;;;24.33;3.83;;;7.40;99.90;;;;;;12380625;28;20134;-84
2021/10/08 06:15:48;;;;;;;8.23;4.60;;;7.30;99.90;;;;;;12375921;28;20125;-84
2021/10/08 06:21:50;;;;;;;4.78;3.38;;;7.20;99.90;;;;;;12368576;28;20317;-83
2021/10/08 06:27:52;;;;;;;5.32;4.00;;;7.30;99.90;;;;;;12381370;28;20495;-83
2021/10/08 06:33:53;;;;;;;7.10;4.32;;;7.40;99.90;;;;;;12387446;28;20192;-84
2021/10/08 06:39:55;;;;;;;7.78;3.70;;;7.40;99.90;;;;;;12399173;28;20181;-84
2021/10/08 06:45:57;;;;;;;7.57;4.00;;;7.40;99.90;;;;;;12379446;28;20038;-84
2021/10/08 06:52:01;;;;;;;5.15;3.88;;;7.40;99.90;;;;;;12378048;28;20070;-83
2021/10/08 06:58:04;;;;;;;5.75;3.65;;;7.40;99.90;;;;;;12377500;28;20593;-84
2021/10/08 07:04:05;;;;;;;5.70;4.00;;;7.50;99.90;;;;;;12377711;28;21063;-83
2021/10/08 07:10:08;;;;;;;6.22;4.95;;;7.50;99.90;;;;;;12382254;28;20053;-84
2021/10/08 07:16:10;;;;;;;6.57;4.78;;;7.60;99.90;;;;;;12370543;28;20637;-84
2021/10/08 07:22:16;;;;;;;7.15;5.60;;;7.70;99.90;;;;;;12381724;28;20414;-83
2021/10/08 07:28:19;;;;;;;9.57;6.45;;;7.70;99.90;;;;;;12385804;28;20111;-84
2021/10/08 07:34:21;;;;;;;8.52;5.72;;;7.80;99.90;;;;;;12385860;28;20088;-83
2021/10/08 07:40:23;;;;;;;16.92;7.15;;;7.90;99.90;;;;;;12378956;28;20053;-83
2021/10/08 07:46:25;;;;;;;14.90;7.30;;;8.10;99.90;;;;;;12388080;28;20049;-84
2021/10/08 07:52:26;;;;;;;12.85;7.88;;;8.20;99.90;;;;;;12392468;28;20050;-84
2021/10/08 07:58:28;;;;;;;8.85;6.72;;;8.40;99.90;;;;;;12397337;28;20058;-84
2021/10/08 08:04:30;;;;;;;46.75;6.20;;;8.50;99.90;;;;;;12382367;28;20049;-85
2021/10/08 08:10:32;;;;;;;111.88;7.90;;;8.60;99.90;;;;;;12378986;28;20053;-84
2021/10/08 08:16:34;;;;;;;12.38;6.38;;;8.70;99.90;;;;;;12379130;28;20054;-83
2021/10/08 08:22:36;;;;;;;8.48;7.38;;;8.80;99.90;;;;;;12381007;28;20085;-84
2021/10/08 08:28:38;;;;;;;9.27;6.97;;;9.00;99.90;;;;;;12375841;28;20097;-85
2021/10/08 08:34:40;;;;;;;8.68;6.05;;;9.00;99.90;;;;;;12376709;28;20051;-84
2021/10/08 08:40:41;;;;;;;9.05;6.68;;;9.20;99.90;;;;;;12384744;28;20050;-83
2021/10/08 08:46:44;;;;;;;9.00;6.60;;;9.50;99.90;;;;;;12387645;28;20095;-84
2021/10/08 08:52:46;;;;;;;9.38;7.00;;;9.80;99.90;;;;;;12385051;28;20053;-84
2021/10/08 08:58:57;;;;;;;10.63;8.10;;;10.20;99.90;;;;;;12375442;28;20137;-84
2021/10/08 09:05:00;;;;;;;10.93;8.05;;;10.40;99.90;;;;;;12367496;28;20053;-84
2021/10/08 09:11:05;;;;;;;9.73;8.20;;;10.70;99.90;;;;;;12373189;28;20042;-84
2021/10/08 09:17:19;;;;;;;10.38;8.88;;;11.10;99.90;;;;;;12378802;28;20041;-85
2021/10/08 09:23:29;;;;;;;9.10;7.87;;;11.50;99.90;;;;;;12362858;28;20073;-84
2021/10/08 09:29:31;;;;;;;12.30;8.10;;;11.80;99.90;;;;;;12379074;28;20112;-84
2021/10/08 09:35:33;;;;;;;10.27;7.75;;;12.00;99.90;;;;;;12384016;28;20053;-85
2021/10/08 09:41:36;;;;;;;14.13;7.72;;;12.30;99.90;;;;;;12365540;28;20054;-86
2021/10/08 09:47:57;;;;;;;8.23;5.72;;;12.20;99.90;;;;;;12360606;28;20453;-85
2021/10/08 09:53:59;;;;;;;9.80;5.80;;;12.50;99.90;;;;;;12382708;28;20042;-87
2021/10/08 10:00:01;;;;;;;8.73;4.82;;;13.10;99.90;;;;;;12376642;28;21089;-85
2021/10/08 10:06:06;;;;;;;7.65;4.72;;;13.40;99.90;;;;;;12383902;28;20632;-87
2021/10/08 10:12:08;;;;;;;8.90;4.88;;;13.60;99.90;;;;;;12369107;28;20050;-85
2021/10/08 10:18:13;;;;;;;7.03;4.53;;;13.80;99.90;;;;;;12367721;28;20093;-85
2021/10/08 10:24:16;;;;;;;8.75;5.13;;;13.80;99.90;;;;;;12364511;28;20088;-86
2021/10/08 10:30:19;;;;;;;7.68;5.32;;;13.70;99.90;;;;;;12359851;28;20058;-86
2021/10/08 10:36:23;;;;;;;11.43;5.72;;;13.70;99.90;;;;;;12383378;28;20474;-85
2021/10/08 10:42:25;;;;;;;10.07;4.97;;;14.10;99.90;;;;;;12363521;28;20052;-86
2021/10/08 10:48:30;;;;;;;8.15;4.88;;;14.20;99.90;;;;;;12360999;28;20061;-87
2021/10/08 10:54:49;;;;;;;8.00;4.35;;;14.60;99.90;;;;;;12369562;28;20438;-87
2021/10/08 11:00:59;;;;;;;6.18;4.55;;;14.70;99.90;;;;;;12368526;28;20100;-86
2021/10/08 11:07:23;;;;;;;9.27;5.38;;;15.00;99.90;;;;;;12372330;28;20061;-86
2021/10/08 11:13:28;;;;;;;6.53;4.57;;;15.30;99.90;;;;;;12386428;28;20053;-86
2021/10/08 11:19:39;;;;;;;8.20;4.90;;;15.30;99.90;;;;;;12372916;28;20060;-86
2021/10/08 11:25:50;;;;;;;9.77;4.93;;;15.60;99.90;;;;;;12391930;28;20056;-86
2021/10/08 11:32:00;;;;;;;9.52;5.05;;;15.90;99.90;;;;;;12377165;28;20466;-88
2021/10/08 11:38:04;;;;;;;8.45;4.90;;;15.60;99.90;;;;;;12365128;28;20274;-86
2021/10/08 11:50:44;;;;;;;8.05;4.40;;;15.70;99.90;;;;;;12374447;28;20062;-87
2021/10/08 11:57:04;;;;;;;8.40;4.35;;;15.50;99.90;;;;;;12382730;28;20526;-86
2021/10/08 12:03:11;;;;;;;11.43;4.38;;;15.90;99.90;;;;;;12385805;28;20037;-88
2021/10/08 12:09:21;;;;;;;7.43;3.65;;;16.10;99.90;;;;;;12381790;28;20168;-87
2021/10/08 12:15:26;;;;;;;7.25;3.95;;;16.30;99.90;;;;;;12318578;28;20177;-87
2021/10/08 12:21:36;;;;;;;6.50;3.58;;;16.30;99.90;;;;;;12331580;28;20058;-87
2021/10/08 12:27:38;;;;;;;6.43;3.95;;;16.00;99.90;;;;;;12372637;28;20061;-87
2021/10/08 12:33:42;;;;;;;5.55;4.10;;;16.00;99.90;;;;;;12375507;28;20050;-87
2021/10/08 12:40:15;;;;;;;8.32;5.05;;;16.30;99.90;;;;;;12379571;28;20049;-87
2021/10/08 12:46:21;;;;;;;7.45;5.00;;;16.60;99.90;;;;;;12378553;28;20072;-87
2021/10/08 12:52:38;;;;;;;10.68;4.93;;;16.70;99.90;;;;;;12382750;28;20053;-87
2021/10/08 12:58:51;;;;;;;7.38;5.00;;;16.70;99.90;;;;;;12375983;28;20050;-87
2021/10/08 13:05:04;;;;;;;8.13;5.35;;;16.60;99.90;;;;;;12362722;28;20119;-86
2021/10/08 13:11:12;;;;;;;12.68;8.10;;;16.30;99.90;;;;;;12374553;28;20050;-88
2021/10/08 13:17:16;;;;;;;10.38;8.05;;;16.20;99.90;;;;;;12380667;28;20054;-87
2021/10/08 13:23:18;;;;;;;10.13;8.15;;;16.00;99.90;;;;;;12381079;28;20112;-88
2021/10/08 13:29:21;;;;;;;12.13;8.38;;;16.10;99.90;;;;;;12359259;28;20613;-88
2021/10/08 13:35:22;;;;;;;11.68;8.00;;;16.40;99.90;;;;;;12375577;28;20104;-86
2021/10/08 13:41:24;;;;;;;12.95;8.35;;;16.60;99.90;;;;;;12367648;28;20046;-86
2021/10/08 13:47:26;;;;;;;12.07;7.90;;;16.70;99.90;;;;;;12371893;28;20062;-88
2021/10/08 13:53:28;;;;;;;11.80;7.28;;;16.60;99.90;;;;;;12388589;28;20108;-88
2021/10/08 13:59:31;;;;;;;12.30;9.43;;;16.40;99.90;;;;;;12378562;28;20498;-87
2021/10/08 14:11:35;;;;;;;10.68;8.73;;;16.10;99.90;;;;;;12379591;28;20053;-86
2021/10/08 14:17:37;;;;;;;12.07;9.02;;;15.90;99.90;;;;;;12370049;28;20053;-87
2021/10/08 14:23:39;;;;;;;10.93;8.93;;;15.80;99.90;;;;;;12373167;28;20276;-86
2021/10/08 14:29:41;;;;;;;12.27;8.35;;;15.70;99.90;;;;;;12378117;28;20062;-87
2021/10/08 14:35:42;;;;;;;14.10;8.45;;;15.80;99.90;;;;;;12380478;28;20158;-85
2021/10/08 14:41:44;;;;;;;11.85;8.98;;;15.70;99.90;;;;;;12361566;28;20540;-86
2021/10/08 14:47:46;;;;;;;12.38;9.27;;;15.60;99.90;;;;;;12393095;28;20046;-87
2021/10/08 14:53:48;;;;;;;11.60;9.43;;;15.60;99.90;;;;;;12368783;28;20596;-88
2021/10/08 14:59:51;;;;;;;12.80;10.13;;;15.40;99.90;;;;;;12366075;28;20572;-86
2021/10/08 15:05:53;;;;;;;12.95;10.02;;;15.30;99.90;;;;;;12376835;28;20134;-87
2021/10/08 15:11:55;;;;;;;14.05;10.18;;;15.10;99.90;;;;;;12370725;28;20503;-86
2021/10/08 15:17:56;;;;;;;14.30;10.90;;;14.90;99.90;;;;;;12367434;28;20501;-87
2021/10/08 15:23:58;;;;;;;15.40;11.15;;;14.70;99.90;;;;;;12369834;28;20065;-87
2021/10/08 15:30:00;;;;;;;16.33;10.50;;;14.80;99.90;;;;;;12365256;28;20061;-86
2021/10/08 15:36:02;;;;;;;14.23;11.60;;;14.70;99.90;;;;;;12369262;28;20137;-87
2021/10/08 15:42:05;;;;;;;17.65;12.40;;;14.60;99.90;;;;;;12366641;28;20799;-87
2021/10/08 15:48:07;;;;;;;15.68;12.30;;;14.70;99.90;;;;;;12371349;28;20768;-86
2021/10/08 15:54:09;;;;;;;14.13;10.85;;;14.70;99.90;;;;;;12371101;28;20116;-86
2021/10/08 16:00:11;;;;;;;15.57;10.82;;;14.70;99.90;;;;;;12375711;28;20451;-86
2021/10/08 16:06:13;;;;;;;15.65;10.93;;;14.60;99.90;;;;;;12368055;28;20080;-85
2021/10/08 16:12:17;;;;;;;15.60;11.65;;;14.40;99.90;;;;;;12364954;28;20586;-87
2021/10/08 16:18:27;;;;;;;15.00;11.38;;;14.30;99.90;;;;;;12378597;28;20049;-86
2021/10/08 16:24:28;;;;;;;16.35;11.65;;;14.20;99.90;;;;;;12377051;28;20782;-87
2021/10/08 16:30:30;;;;;;;17.52;12.75;;;14.20;99.90;;;;;;12374372;28;20069;-87
2021/10/08 16:36:41;;;;;;;17.00;12.68;;;14.00;99.90;;;;;;12385598;28;20062;-86
2021/10/08 16:42:44;;;;;;;16.92;13.50;;;13.90;99.90;;;;;;12383349;28;20073;-86
2021/10/08 16:48:45;;;;;;;20.67;13.82;;;13.80;99.90;;;;;;12374283;28;20563;-86
2021/10/08 16:54:47;;;;;;;19.13;12.55;;;13.60;99.90;;;;;;12380385;28;20046;-86
2021/10/08 17:00:49;;;;;;;19.27;12.57;;;13.60;99.90;;;;;;12385103;28;20057;-85
2021/10/08 17:06:52;;;;;;;14.30;11.82;;;13.50;99.90;;;;;;12367387;28;20132;-85
2021/10/08 17:12:54;;;;;;;17.90;12.18;;;13.50;99.90;;;;;;12371731;28;20140;-87
2021/10/08 17:18:56;;;;;;;18.15;11.55;;;13.40;99.90;;;;;;12392892;28;20049;-86
2021/10/08 17:25:04;;;;;;;15.23;12.35;;;13.30;99.90;;;;;;12378460;28;20564;-85
2021/10/08 17:37:09;;;;;;;17.50;11.35;;;13.20;99.90;;;;;;12387341;28;20573;-85
2021/10/08 17:43:15;;;;;;;15.85;12.45;;;13.20;99.90;;;;;;12391166;28;20060;-85
2021/10/08 17:49:17;;;;;;;14.70;11.90;;;13.20;99.90;;;;;;12369681;28;20068;-85
2021/10/08 17:55:18;;;;;;;14.93;11.38;;;13.20;99.90;;;;;;12366575;28;20426;-85
2021/10/08 18:01:23;;;;;;;16.50;11.48;;;13.00;99.90;;;;;;12366819;28;20469;-85
2021/10/08 18:07:25;;;;;;;17.25;12.10;;;13.00;99.90;;;;;;12374921;28;20100;-86
2021/10/08 18:13:27;;;;;;;17.55;13.70;;;13.00;99.90;;;;;;12376255;28;20127;-85
2021/10/08 18:19:34;;;;;;;18.05;11.45;;;12.90;99.90;;;;;;12371652;28;20050;-84
2021/10/08 18:25:36;;;;;;;14.23;10.82;;;12.90;99.90;;;;;;12365220;28;20481;-86
2021/10/08 18:31:43;;;;;;;17.75;11.55;;;13.00;99.90;;;;;;12376290;28;20046;-86
2021/10/08 18:37:45;;;;;;;20.90;16.20;;;12.90;99.90;;;;;;12378585;28;20058;-86
2021/10/08 18:43:47;;;;;;;15.75;10.73;;;12.90;99.90;;;;;;12359680;28;20132;-85
2021/10/08 18:49:49;;;;;;;13.55;10.50;;;13.00;99.90;;;;;;12375993;28;20065;-86
2021/10/08 18:55:51;;;;;;;13.73;10.40;;;13.10;99.90;;;;;;12376724;28;20568;-86
2021/10/08 19:01:53;;;;;;;16.73;10.40;;;13.10;99.90;;;;;;12365668;28;20085;-85
2021/10/08 19:07:57;;;;;;;16.58;10.68;;;13.10;99.90;;;;;;12370699;28;20078;-85
2021/10/08 19:14:28;;;;;;;16.80;11.77;;;13.10;99.90;;;;;;12352494;28;20069;-85
2021/10/08 19:26:32;;;;;;;18.90;12.13;;;13.00;99.90;;;;;;12373723;28;20298;-85
2021/10/08 19:32:34;;;;;;;16.13;12.10;;;12.90;99.90;;;;;;12331504;28;20055;-85
2021/10/08 19:38:36;;;;;;;18.17;12.50;;;12.80;99.90;;;;;;12338115;28;20787;-85
2021/10/08 19:44:43;;;;;;;15.23;12.13;;;12.70;99.90;;;;;;12341049;28;20050;-86
2021/10/08 19:50:45;;;;;;;17.35;13.15;;;12.70;99.90;;;;;;12343409;28;20042;-86
2021/10/08 19:56:47;;;;;;;22.50;14.07;;;12.60;99.90;;;;;;12347044;28;20415;-86
2021/10/08 20:02:52;;;;;;;25.85;15.95;;;12.60;99.90;;;;;;12355456;28;20069;-85
2021/10/08 20:15:14;;;;;;;22.48;15.05;;;12.50;99.90;;;;;;12350798;28;20104;-85
2021/10/08 20:21:18;;;;;;;23.52;15.32;;;12.50;99.90;;;;;;12360381;28;20047;-85
2021/10/08 20:27:20;;;;;;;;;;;12.50;99.90;;;;;;12352821;28;20058;-85
2021/10/08 20:33:24;;;;;;;20.95;16.42;;;12.40;99.90;;;;;;12374416;28;19925;-86
2021/10/08 20:39:26;;;;;;;23.73;16.00;;;12.30;99.90;;;;;;12405217;28;20105;-84
2021/10/08 20:45:28;;;;;;;26.90;16.92;;;12.30;99.90;;;;;;12399535;28;20100;-85
2021/10/08 20:51:30;;;;;;;22.45;16.48;;;12.30;99.90;;;;;;12390349;28;20046;-85
2021/10/08 20:57:32;;;;;;;25.58;17.55;;;12.10;99.90;;;;;;12380531;28;20046;-86
2021/10/08 21:03:34;;;;;;;25.20;19.02;;;12.00;99.90;;;;;;12368067;28;20894;-85
2021/10/08 21:09:36;;;;;;;26.98;19.27;;;12.00;99.90;;;;;;12343791;28;20089;-86
2021/10/08 21:15:38;;;;;;;29.67;19.15;;;11.90;99.90;;;;;;12325509;28;20125;-85
2021/10/08 21:21:40;;;;;;;23.48;17.83;;;11.90;99.90;;;;;;12363307;28;20473;-85
2021/10/08 21:27:43;;;;;;;27.70;17.95;;;11.90;99.90;;;;;;12401971;28;20138;-86
2021/10/08 21:33:47;;;;;;;23.08;16.65;;;11.90;99.90;;;;;;12379957;28;20054;-85
2021/10/08 21:45:51;;;;;;;26.00;18.05;;;12.20;99.90;;;;;;12401766;28;20057;-85
2021/10/08 21:51:53;;;;;;;23.42;17.58;;;11.90;99.90;;;;;;12391478;28;20061;-85
2021/10/08 21:57:55;;;;;;;29.25;19.05;;;12.00;99.90;;;;;;12386382;28;20461;-85
2021/10/08 22:04:03;;;;;;;26.40;19.38;;;11.70;99.90;;;;;;12378841;28;20095;-85
2021/10/08 22:10:05;;;;;;;27.23;18.42;;;11.60;99.90;;;;;;12396752;28;20057;-84
2021/10/08 22:16:09;;;;;;;27.85;17.23;;;11.60;99.90;;;;;;12380944;28;20533;-85
2021/10/08 22:22:13;;;;;;;28.10;20.38;;;11.40;99.90;;;;;;12374188;28;20046;-85
2021/10/08 22:34:17;;;;;;;29.02;19.23;;;11.00;99.90;;;;;;12391120;28;20038;-85
2021/10/08 22:40:19;;;;;;;28.23;19.90;;;11.10;99.90;;;;;;12384069;28;20050;-85
2021/10/08 22:46:22;;;;;;;25.58;18.10;;;11.40;99.90;;;;;;12382906;28;20562;-84
2021/10/08 22:52:23;;;;;;;28.48;19.75;;;11.40;99.90;;;;;;12379651;28;20042;-86
2021/10/08 22:58:25;;;;;;;27.13;20.02;;;11.10;99.90;;;;;;12374001;28;20572;-84
2021/10/08 23:04:27;;;;;;;27.63;19.98;;;11.20;99.90;;;;;;12385618;28;20462;-84
2021/10/08 23:10:58;;;;;;;28.48;20.02;;;11.20;99.90;;;;;;12391006;28;20495;-84
2021/10/08 23:16:59;;;;;;;32.78;20.88;;;11.00;99.90;;;;;;12397805;28;20041;-84
2021/10/08 23:23:02;;;;;;;27.35;19.73;;;10.90;99.90;;;;;;12405061;28;20389;-85
2021/10/08 23:29:05;;;;;;;27.45;20.30;;;11.00;99.90;;;;;;12387085;28;20124;-85
2021/10/08 23:35:07;;;;;;;29.70;21.23;;;11.00;99.90;;;;;;12398943;28;20069;-84
2021/10/08 23:41:09;;;;;;;29.65;20.55;;;10.80;99.90;;;;;;12389658;28;20062;-85
2021/10/08 23:47:11;;;;;;;30.60;20.48;;;10.80;99.90;;;;;;12382741;28;20046;-85
2021/10/08 23:53:12;;;;;;;26.48;18.42;;;10.80;99.90;;;;;;12385086;28;20732;-84
2021/10/08 23:59:15;;;;;;;33.65;20.52;;;10.80;99.90;;;;;;12386647;28;20101;-84
